SHO weather

King Mswati III International Airport
Manzini, Lubombo, Swaziland

Public forecast

Using degrees Celsius for public forecast. Weather courtesy of forecast.io.

Current aviation weather report (METAR) for King Mswati III International Airport

Report is more than 6 hours old.

Retrieved 2020/01/19 14:00 UTC (10 hours ago):

FDSK 191400Z 19018KT 9999 BKN035 25/17 Q1010 NOSIG

Closest aviation forecast (TAF) to King Mswati III International Airport

Forecast is more than 12 hours old.

Closest forecast is Matsapha Airport, 24.3 nm (45.0 km) WSW. Retrieved 2020/01/07 06:39 UTC (13 days ago):

TAF TAF FDMS 070400Z 0706/0718 03007KT 9999 SCT035 BECMG 0712/0714 CAVOK